createdAt,value
2023-04-18T04:40:56.219Z,100084.41
2023-04-18T04:44:12.576Z,100103.72
2023-04-18T04:47:26.915Z,100102.38
2023-04-18T04:50:42.542Z,100105.00
2023-04-18T04:53:56.717Z,100108.59
2023-04-18T04:57:12.409Z,100103.47
2023-04-18T05:00:26.819Z,100113.91
2023-04-18T05:03:42.528Z,100107.84
2023-04-18T05:06:58.762Z,100112.13
2023-04-18T05:10:24.274Z,100118.16
2023-04-18T05:13:49.492Z,100121.28
2023-04-18T05:20:59.442Z,100122.44
2023-04-18T05:24:14.053Z,100118.97
2023-04-18T05:27:28.780Z,100119.94
2023-04-18T05:30:51.847Z,100130.12
2023-04-18T05:34:06.736Z,100121.19
2023-04-18T05:37:22.644Z,100128.25
2023-04-18T05:41:13.882Z,100130.91
2023-04-18T05:44:28.354Z,100127.44
2023-04-18T05:48:09.278Z,100139.13
2023-04-18T05:51:50.893Z,100139.13
2023-04-18T05:55:09.918Z,100137.81
2023-04-18T05:58:46.738Z,100141.53
2023-04-18T06:02:07.961Z,100136.09
2023-04-18T06:09:12.791Z,100133.34
2023-04-18T06:12:33.015Z,100134.72
2023-04-18T06:19:21.341Z,100142.50
2023-04-18T06:22:51.255Z,100142.03
2023-04-18T06:26:21.028Z,100138.50
2023-04-18T06:30:07.712Z,100149.00
2023-04-18T06:33:30.799Z,100151.53
2023-04-18T06:37:03.780Z,100152.56
2023-04-18T06:40:44.233Z,100153.53
2023-04-18T06:44:03.634Z,100152.91
2023-04-18T06:47:33.812Z,100156.19
2023-04-18T06:51:03.768Z,100162.44
2023-04-18T06:54:38.302Z,100157.28
2023-04-18T06:58:04.345Z,100164.56
2023-04-18T07:01:31.495Z,100155.06
2023-04-18T07:05:10.373Z,100162.91
2023-04-18T07:12:14.205Z,100158.00
2023-04-18T07:15:59.465Z,100155.41
2023-04-18T07:19:20.360Z,100159.19
2023-04-18T07:22:56.886Z,100166.47
2023-04-18T07:26:17.646Z,100167.94
2023-04-18T07:29:32.236Z,100165.53
2023-04-18T07:33:37.490Z,100167.72
2023-04-18T07:37:56.337Z,100176.81
2023-04-18T07:41:13.856Z,100181.25
2023-04-18T07:44:57.225Z,100179.03
2023-04-18T07:49:11.445Z,100182.25
2023-04-18T07:52:52.846Z,100178.75
2023-04-18T07:56:21.221Z,100169.81
2023-04-18T07:59:53.352Z,100182.47
2023-04-18T08:03:32.853Z,100182.72
2023-04-18T08:07:18.341Z,100179.50
2023-04-18T08:14:40.986Z,100183.88
2023-04-18T08:18:17.543Z,100182.59
2023-04-18T08:21:31.822Z,100178.97
2023-04-18T08:25:05.433Z,100194.88
2023-04-18T08:28:50.370Z,100188.34
2023-04-18T08:32:24.250Z,100192.53
2023-04-18T08:35:42.448Z,100201.62
2023-04-18T08:39:03.855Z,100196.19
2023-04-18T08:43:03.194Z,100194.25
2023-04-18T08:46:43.143Z,100200.16
2023-04-18T08:49:59.859Z,100203.28
2023-04-18T08:53:32.945Z,100199.50
2023-04-18T08:56:50.713Z,100200.47
2023-04-18T09:00:23.920Z,100201.38
2023-04-18T09:03:55.357Z,100198.84
2023-04-18T09:07:43.134Z,100205.75
2023-04-18T09:11:42.978Z,100201.16
2023-04-18T09:15:07.779Z,100204.56
2023-04-18T09:18:39.645Z,100203.88
2023-04-18T09:22:04.340Z,100203.66
2023-04-18T09:25:55.804Z,100202.31
2023-04-18T09:29:11.212Z,100196.91
2023-04-18T09:32:29.898Z,100209.16
2023-04-18T09:36:19.443Z,100203.59
2023-04-18T09:40:08.977Z,100201.53
2023-04-18T09:43:44.984Z,100200.91
2023-04-18T09:47:07.527Z,100202.03
2023-04-18T09:50:52.528Z,100198.81
2023-04-18T09:54:25.860Z,100210.69
2023-04-18T09:58:19.173Z,100201.31
2023-04-18T10:01:56.764Z,100196.00
2023-04-18T10:05:41.247Z,100192.97
2023-04-18T10:09:38.745Z,100203.47
2023-04-18T10:13:05.131Z,100201.72
2023-04-18T10:16:34.104Z,100210.47
2023-04-18T10:20:21.336Z,100206.75
2023-04-18T10:23:47.342Z,100210.50
2023-04-18T10:27:11.198Z,100196.50
2023-04-18T10:31:13.316Z,100200.69
2023-04-18T10:43:10.644Z,100194.78
2023-04-18T10:46:53.581Z,100192.34
2023-04-18T10:50:41.501Z,100184.72
2023-04-18T10:54:03.084Z,100186.84
2023-04-18T10:57:33.754Z,100188.16
2023-04-18T11:01:18.148Z,100195.88
2023-04-18T11:04:47.174Z,100183.31
2023-04-18T11:08:16.079Z,100191.53
2023-04-18T11:11:44.568Z,100190.81
2023-04-18T11:15:31.161Z,100196.84
2023-04-18T11:19:07.002Z,100203.84
2023-04-18T11:22:32.156Z,100200.47
2023-04-18T11:26:10.096Z,100204.38
2023-04-18T11:30:04.424Z,100202.59
2023-04-18T11:33:30.287Z,100203.66
2023-04-18T11:40:40.776Z,100198.12
2023-04-18T11:43:55.413Z,100198.38
2023-04-18T11:47:26.962Z,100193.56
2023-04-18T11:50:56.213Z,100193.13
2023-04-18T11:54:58.164Z,100193.59
2023-04-18T12:02:23.884Z,100196.00
2023-04-18T12:05:43.113Z,100190.31
2023-04-18T12:09:33.337Z,100191.47
2023-04-18T12:17:09.393Z,100195.38
2023-04-18T12:20:34.050Z,100195.31
2023-04-18T12:24:09.220Z,100196.16
2023-04-18T12:27:27.516Z,100194.53
2023-04-18T12:35:02.256Z,100194.03
2023-04-18T12:42:46.289Z,100188.75
2023-04-18T12:46:23.587Z,100191.69
2023-04-18T12:49:50.164Z,100200.22
2023-04-18T12:53:05.971Z,100201.91
2023-04-18T12:56:20.261Z,100189.78
2023-04-18T12:59:40.170Z,100197.44
2023-04-18T13:10:39.225Z,100188.69
2023-04-18T13:14:13.793Z,100193.53
2023-04-18T13:17:49.244Z,100185.53
2023-04-18T13:21:49.656Z,100197.00
2023-04-18T13:25:07.939Z,100206.91
2023-04-18T13:28:46.378Z,100202.75
2023-04-18T13:32:10.450Z,100208.28
2023-04-18T13:35:38.603Z,100213.19
2023-04-18T13:39:01.281Z,100203.75
2023-04-18T13:42:31.145Z,100207.16
2023-04-18T13:46:06.855Z,100203.37
2023-04-18T13:49:30.731Z,100196.50
2023-04-18T13:52:49.865Z,100204.84
2023-04-18T13:56:20.445Z,100210.03
2023-04-18T14:03:29.603Z,100198.50
2023-04-18T14:06:50.362Z,100201.31
2023-04-18T14:10:17.482Z,100196.78
2023-04-18T14:13:51.060Z,100189.37
2023-04-18T14:17:18.244Z,100186.13
2023-04-18T14:21:00.839Z,100193.56
2023-04-18T14:24:18.011Z,100201.28
2023-04-18T14:28:11.468Z,100201.12
2023-04-18T14:31:38.134Z,100203.37
2023-04-18T14:35:04.489Z,100191.94
2023-04-18T14:38:28.720Z,100201.28
2023-04-18T14:45:22.258Z,100203.75
2023-04-18T14:48:39.258Z,100195.25
2023-04-18T14:51:53.606Z,100188.63
2023-04-18T14:55:12.360Z,100197.97
2023-04-18T14:58:26.680Z,100201.38
2023-04-18T15:01:43.915Z,100191.41
2023-04-18T15:05:00.251Z,100199.41
2023-04-18T15:08:14.757Z,100207.59
2023-04-18T15:11:29.195Z,100206.06
2023-04-18T15:14:43.417Z,100192.44
2023-04-18T15:17:58.202Z,100190.44
2023-04-18T15:21:13.986Z,100194.03
2023-04-18T15:24:28.244Z,100194.19
2023-04-18T15:27:42.599Z,100195.16
2023-04-18T15:30:56.894Z,100186.88
2023-04-18T15:34:12.029Z,100179.13
2023-04-18T15:37:28.673Z,100170.84
2023-04-18T15:40:45.597Z,100180.91
2023-04-18T15:44:00.489Z,100185.59
2023-04-18T15:47:14.908Z,100189.63
2023-04-18T15:50:36.415Z,100177.72
2023-04-18T15:53:58.593Z,100175.66
2023-04-18T15:57:13.348Z,100184.66
2023-04-18T16:00:31.114Z,100179.09
2023-04-18T16:26:25.066Z,100193.75
2023-04-18T16:29:40.693Z,100193.75
2023-04-18T16:32:55.671Z,100203.66
2023-04-18T16:40:41.912Z,100202.38
